Time;durP1;ratioP1;P1;durP2;ratioP2;P2;SDS_P1;SDS_P2;PMS_P1;PMS_P2;Temp;Humidity;BMP_temperature;BMP_pressure;BME280_temperature;BME280_humidity;BME280_pressure;Samples;Min_cycle;Max_cycle;Signal;HPM_P1;HPM_P2
2022/10/07 00:01:49;;;;;;;7.90;3.10;;;13.40;78.90;;;;;;5054522;28;20453;-68
2022/10/07 00:04:16;;;;;;;14.73;2.77;;;13.40;79.00;;;;;;5054355;28;20823;-68
2022/10/07 00:06:44;;;;;;;6.20;2.43;;;13.40;79.00;;;;;;5054309;28;20494;-67
2022/10/07 00:09:11;;;;;;;8.70;2.70;;;13.40;79.00;;;;;;5054293;28;20511;-67
2022/10/07 00:11:38;;;;;;;11.45;3.33;;;13.40;79.10;;;;;;5018516;28;1055336;-67
2022/10/07 00:14:07;;;;;;;10.03;3.10;;;13.40;79.50;;;;;;5055455;28;20203;-68
2022/10/07 00:16:35;;;;;;;8.80;3.40;;;13.40;79.50;;;;;;5055397;28;20463;-67
2022/10/07 00:19:05;;;;;;;6.60;3.17;;;13.30;79.10;;;;;;5055165;28;20457;-68
2022/10/07 00:21:34;;;;;;;10.47;3.43;;;13.30;79.30;;;;;;5055308;28;20464;-67
2022/10/07 00:24:02;;;;;;;10.33;2.70;;;13.30;79.50;;;;;;5055425;28;20452;-68
2022/10/07 00:26:32;;;;;;;8.30;2.90;;;13.30;79.80;;;;;;5054806;28;20913;-67
2022/10/07 00:28:59;;;;;;;7.63;2.70;;;13.30;79.90;;;;;;5055155;28;20451;-67
2022/10/07 00:31:28;;;;;;;9.03;3.60;;;13.20;79.80;;;;;;5055222;28;20461;-67
2022/10/07 00:33:56;;;;;;;7.30;2.77;;;13.20;80.00;;;;;;5054899;28;20449;-67
2022/10/07 00:36:26;;;;;;;7.77;2.60;;;13.20;79.90;;;;;;5054676;28;20449;-67
2022/10/07 00:38:55;;;;;;;7.10;2.97;;;13.20;79.90;;;;;;5054501;28;20976;-67
2022/10/07 00:41:25;;;;;;;10.30;2.60;;;13.20;80.00;;;;;;5054659;28;20941;-67
2022/10/07 00:43:52;;;;;;;7.53;2.87;;;13.10;80.00;;;;;;5054967;28;20432;-67
2022/10/07 00:46:28;;;;;;;7.70;2.20;;;13.10;80.20;;;;;;5054633;28;20489;-68
2022/10/07 00:48:56;;;;;;;12.20;3.10;;;13.10;80.10;;;;;;5054412;28;20539;-67
2022/10/07 00:51:23;;;;;;;9.73;3.20;;;13.10;80.10;;;;;;5055104;28;20440;-67
2022/10/07 00:53:53;;;;;;;9.40;2.63;;;13.00;80.20;;;;;;5054673;28;20450;-67
2022/10/07 00:56:21;;;;;;;11.97;3.20;;;13.00;80.60;;;;;;5054236;28;20449;-67
2022/10/07 00:58:51;;;;;;;5.90;2.57;;;12.90;80.50;;;;;;5053807;28;20451;-67
2022/10/07 01:01:18;;;;;;;8.70;2.63;;;12.90;80.50;;;;;;5054567;28;20450;-67
2022/10/07 01:03:47;;;;;;;8.70;2.80;;;12.90;80.80;;;;;;5054415;28;20456;-68
2022/10/07 01:06:13;;;;;;;8.57;2.70;;;12.90;80.80;;;;;;5054270;28;20843;-67
2022/10/07 01:08:41;;;;;;;11.33;3.87;;;12.90;81.00;;;;;;5054213;28;20448;-67
2022/10/07 01:11:21;;;;;;;7.10;2.43;;;12.90;81.20;;;;;;5054514;28;20460;-67
2022/10/07 01:14:02;;;;;;;6.10;2.57;;;12.80;81.30;;;;;;5055269;28;20764;-67
2022/10/07 01:16:36;;;;;;;10.00;3.60;;;12.80;81.40;;;;;;5054339;28;20427;-68
2022/10/07 01:19:12;;;;;;;17.40;3.10;;;12.80;81.50;;;;;;5054117;28;20983;-68
2022/10/07 01:21:46;;;;;;;8.30;2.20;;;12.80;82.30;;;;;;5054328;28;20437;-67
2022/10/07 01:24:32;;;;;;;8.43;2.60;;;12.80;81.60;;;;;;5054185;28;20444;-68
2022/10/07 01:27:03;;;;;;;5.60;2.67;;;12.80;81.70;;;;;;5054040;28;20987;-67
2022/10/07 01:29:36;;;;;;;11.27;3.40;;;12.80;81.70;;;;;;5053817;28;20494;-67
2022/10/07 01:32:09;;;;;;;5.40;2.50;;;12.70;81.90;;;;;;5065270;28;20440;-66
2022/10/07 01:34:38;;;;;;;6.43;3.20;;;12.70;82.30;;;;;;5066875;28;20448;-66
2022/10/07 01:37:08;;;;;;;7.80;2.83;;;12.70;82.50;;;;;;5066987;28;20479;-66
2022/10/07 01:39:38;;;;;;;6.67;2.57;;;12.70;82.60;;;;;;5067160;28;20479;-65
2022/10/07 01:42:06;;;;;;;4.47;2.57;;;12.60;82.40;;;;;;5067030;28;20548;-65
2022/10/07 01:44:34;;;;;;;9.20;2.63;;;12.60;82.30;;;;;;5067298;28;20444;-65
2022/10/07 01:47:00;;;;;;;9.73;3.50;;;12.60;82.40;;;;;;5067823;28;20540;-65
2022/10/07 01:49:28;;;;;;;5.67;2.73;;;12.60;82.40;;;;;;5067005;28;20461;-65
2022/10/07 01:52:14;;;;;;;7.10;2.53;;;12.60;82.40;;;;;;5067075;28;20533;-65
2022/10/07 01:54:52;;;;;;;11.80;3.30;;;12.50;82.30;;;;;;5067483;28;20437;-65
2022/10/07 01:57:31;;;;;;;5.07;2.40;;;12.50;82.40;;;;;;5068035;28;20434;-65
2022/10/07 02:00:07;;;;;;;8.47;2.90;;;12.50;82.90;;;;;;5068092;28;20477;-65
2022/10/07 02:03:04;;;;;;;8.03;2.63;;;12.50;83.10;;;;;;5066864;28;20422;-65
2022/10/07 02:05:42;;;;;;;8.73;2.50;;;12.50;83.20;;;;;;5068157;28;20485;-65
2022/10/07 02:08:29;;;;;;;6.33;2.60;;;12.50;83.40;;;;;;5066960;28;20436;-65
2022/10/07 02:11:07;;;;;;;7.57;2.97;;;12.50;83.30;;;;;;5062878;28;20480;-65
2022/10/07 02:13:42;;;;;;;8.83;2.70;;;12.50;83.20;;;;;;5060155;28;20444;-65
2022/10/07 02:16:16;;;;;;;8.90;3.40;;;12.50;83.30;;;;;;5065158;28;20447;-65
2022/10/07 02:18:47;;;;;;;7.90;3.17;;;12.40;84.20;;;;;;5064692;28;20432;-66
2022/10/07 02:21:18;;;;;;;14.63;4.33;;;12.40;83.20;;;;;;5065900;28;20442;-66
2022/10/07 02:23:46;;;;;;;8.80;2.40;;;12.40;83.40;;;;;;5067041;28;20444;-65
2022/10/07 02:26:16;;;;;;;10.13;2.77;;;12.40;83.60;;;;;;5066049;28;20581;-66
2022/10/07 02:28:46;;;;;;;7.57;2.60;;;12.40;83.80;;;;;;5067470;28;20432;-66
2022/10/07 02:31:16;;;;;;;8.10;2.97;;;12.40;83.90;;;;;;5066603;28;20801;-66
2022/10/07 02:33:46;;;;;;;8.47;2.73;;;12.40;83.90;;;;;;5065970;28;20444;-65
2022/10/07 02:36:21;;;;;;;11.80;3.07;;;12.30;83.10;;;;;;5065421;28;20448;-65
2022/10/07 02:38:48;;;;;;;4.00;2.60;;;12.20;82.50;;;;;;5064460;28;20466;-65
2022/10/07 02:41:30;;;;;;;8.70;2.97;;;12.20;83.20;;;;;;5064759;28;20454;-66
2022/10/07 02:44:03;;;;;;;7.57;2.57;;;12.20;83.60;;;;;;5065603;28;20439;-66
2022/10/07 02:46:35;;;;;;;13.53;2.50;;;12.30;84.00;;;;;;5064863;28;20470;-65
2022/10/07 02:49:04;;;;;;;9.07;2.67;;;12.30;84.10;;;;;;5065844;28;20823;-65
2022/10/07 02:51:36;;;;;;;7.90;2.50;;;12.30;84.20;;;;;;5065248;28;20449;-65
2022/10/07 02:54:05;;;;;;;8.03;3.43;;;12.30;84.30;;;;;;5064161;28;20433;-65
2022/10/07 02:56:35;;;;;;;4.00;2.03;;;12.30;84.60;;;;;;5064492;28;20440;-65
2022/10/07 02:59:07;;;;;;;6.57;2.73;;;12.30;84.30;;;;;;5065734;28;20473;-65
2022/10/07 03:01:38;;;;;;;10.30;2.90;;;12.30;84.10;;;;;;5065760;28;20433;-66
2022/10/07 03:04:05;;;;;;;9.60;2.70;;;12.30;83.80;;;;;;5065135;28;20456;-66
2022/10/07 03:06:31;;;;;;;6.70;2.40;;;12.30;83.60;;;;;;5065913;28;20511;-66
2022/10/07 03:08:59;;;;;;;5.37;2.47;;;12.30;83.50;;;;;;5066418;28;20456;-65
2022/10/07 03:11:26;;;;;;;5.50;2.13;;;12.30;84.10;;;;;;5066488;28;20465;-65
2022/10/07 03:13:53;;;;;;;7.60;2.67;;;12.30;83.20;;;;;;5066728;28;20449;-65
2022/10/07 03:16:21;;;;;;;8.60;2.80;;;12.40;83.20;;;;;;5065199;28;20457;-65
2022/10/07 03:18:47;;;;;;;4.83;3.07;;;12.40;83.30;;;;;;5067095;28;20452;-66
2022/10/07 03:21:15;;;;;;;8.50;2.57;;;12.40;83.60;;;;;;5067441;28;20451;-66
2022/10/07 03:23:42;;;;;;;7.40;3.03;;;12.40;83.70;;;;;;5070709;28;20451;-66
2022/10/07 03:26:08;;;;;;;10.50;3.07;;;12.30;83.80;;;;;;5071452;28;20479;-66
2022/10/07 03:28:36;;;;;;;6.57;2.53;;;12.30;83.90;;;;;;5070366;28;20456;-66
2022/10/07 03:31:07;;;;;;;10.80;2.77;;;12.30;83.90;;;;;;5070671;28;20529;-66
2022/10/07 03:33:36;;;;;;;5.00;2.60;;;12.30;83.70;;;;;;5069769;28;20448;-65
2022/10/07 03:36:03;;;;;;;9.83;3.07;;;12.30;83.70;;;;;;5069900;28;20495;-66
2022/10/07 03:38:30;;;;;;;9.50;3.00;;;12.20;83.50;;;;;;5070088;28;20456;-65
2022/10/07 03:40:57;;;;;;;8.00;2.70;;;12.20;83.50;;;;;;5068886;28;20977;-65
2022/10/07 03:43:25;;;;;;;5.30;2.60;;;12.20;83.50;;;;;;5068524;28;20452;-66
2022/10/07 03:45:52;;;;;;;8.00;2.40;;;12.20;83.50;;;;;;5068197;28;20453;-66
2022/10/07 03:48:18;;;;;;;10.27;2.60;;;12.30;83.80;;;;;;5068719;28;20475;-65
2022/10/07 03:50:49;;;;;;;8.53;2.77;;;12.20;84.10;;;;;;5069422;28;20483;-65
2022/10/07 03:53:16;;;;;;;7.63;2.33;;;12.10;84.50;;;;;;5068758;28;20436;-65
2022/10/07 03:55:43;;;;;;;8.07;2.70;;;12.10;84.90;;;;;;5069034;28;20452;-63
2022/10/07 03:58:11;;;;;;;10.97;3.13;;;12.00;85.20;;;;;;5068808;28;20451;-65
2022/10/07 04:00:39;;;;;;;8.97;4.20;;;11.90;85.50;;;;;;5068394;28;20997;-66
2022/10/07 04:03:06;;;;;;;8.93;5.13;;;11.80;85.90;;;;;;5069468;28;20455;-66
2022/10/07 04:05:34;;;;;;;7.40;4.10;;;11.70;86.10;;;;;;5068615;28;20542;-65
2022/10/07 04:08:03;;;;;;;6.83;3.60;;;11.70;86.80;;;;;;5067614;28;20475;-65
2022/10/07 04:10:30;;;;;;;3.93;2.93;;;11.60;87.30;;;;;;5068908;28;20487;-65
2022/10/07 04:12:57;;;;;;;5.10;2.83;;;11.60;87.60;;;;;;5055849;28;20959;-66
2022/10/07 04:15:24;;;;;;;7.63;2.70;;;11.60;87.70;;;;;;5056264;28;20450;-67
2022/10/07 04:17:57;;;;;;;5.10;2.57;;;11.60;87.50;;;;;;5056085;28;20455;-67
2022/10/07 04:20:24;;;;;;;7.90;2.90;;;11.60;87.30;;;;;;5055764;28;20476;-67
2022/10/07 04:22:50;;;;;;;10.27;3.00;;;11.70;87.30;;;;;;5055998;28;20460;-67
2022/10/07 04:25:34;;;;;;;8.47;3.70;;;11.70;87.30;;;;;;5055843;28;20457;-67
2022/10/07 04:28:02;;;;;;;9.90;3.53;;;11.70;87.80;;;;;;5055729;28;20476;-67
2022/10/07 04:30:32;;;;;;;8.73;3.00;;;11.70;87.10;;;;;;5055753;28;20492;-67
2022/10/07 04:32:59;;;;;;;7.83;2.37;;;11.60;87.10;;;;;;5055779;28;20448;-67
2022/10/07 04:35:26;;;;;;;8.03;3.17;;;11.70;87.60;;;;;;5054630;28;20456;-67
2022/10/07 04:37:53;;;;;;;6.23;2.83;;;11.60;87.30;;;;;;5055559;28;20455;-67
2022/10/07 04:40:22;;;;;;;7.07;3.10;;;11.60;87.50;;;;;;5055033;28;20479;-67
2022/10/07 04:45:34;;;;;;;11.03;3.27;;;11.60;87.70;;;;;;5055631;28;20409;-68
2022/10/07 04:48:01;;;;;;;7.70;3.10;;;11.60;87.70;;;;;;5055032;28;21124;-67
2022/10/07 04:50:28;;;;;;;10.80;4.00;;;11.60;88.00;;;;;;5055695;28;20548;-67
2022/10/07 04:52:56;;;;;;;11.33;4.07;;;11.50;88.20;;;;;;5055504;28;20456;-67
2022/10/07 04:55:25;;;;;;;12.60;5.47;;;11.50;88.40;;;;;;5055070;28;20435;-68
2022/10/07 04:57:52;;;;;;;8.60;3.00;;;11.50;88.30;;;;;;5056394;28;20428;-66
2022/10/07 05:00:19;;;;;;;8.17;2.83;;;11.40;88.20;;;;;;5069252;28;20488;-66
2022/10/07 05:02:49;;;;;;;7.03;3.00;;;11.40;88.30;;;;;;5068573;28;20446;-65
2022/10/07 05:05:16;;;;;;;7.97;2.83;;;11.50;88.10;;;;;;5067833;28;20451;-64
2022/10/07 05:07:43;;;;;;;6.80;2.47;;;11.40;88.30;;;;;;5067715;28;20488;-64
2022/10/07 05:10:11;;;;;;;5.57;2.53;;;11.40;88.60;;;;;;5068260;28;20567;-65
2022/10/07 05:12:40;;;;;;;7.37;2.60;;;11.40;88.60;;;;;;5067595;28;20483;-65
2022/10/07 05:15:07;;;;;;;5.40;2.60;;;11.40;88.50;;;;;;5065452;28;20488;-65
2022/10/07 05:17:34;;;;;;;10.33;3.00;;;11.50;88.60;;;;;;5064529;28;20447;-65
2022/10/07 05:20:01;;;;;;;14.87;3.97;;;11.50;88.40;;;;;;5064525;28;21023;-65
2022/10/07 05:22:28;;;;;;;11.27;4.07;;;11.60;88.20;;;;;;5065505;28;20463;-65
2022/10/07 05:24:55;;;;;;;5.80;2.33;;;11.60;87.70;;;;;;5060027;28;20821;-64
2022/10/07 05:27:22;;;;;;;6.70;2.83;;;11.60;87.50;;;;;;5058176;28;20488;-64
2022/10/07 05:29:50;;;;;;;16.77;3.10;;;11.60;87.20;;;;;;5062769;28;20468;-65
2022/10/07 05:32:17;;;;;;;6.67;3.20;;;11.60;87.10;;;;;;5064567;28;20452;-65
2022/10/07 05:34:44;;;;;;;5.77;2.70;;;11.50;88.00;;;;;;5064878;28;20506;-65
2022/10/07 05:37:11;;;;;;;12.83;2.80;;;11.40;87.60;;;;;;5065004;28;20452;-66
2022/10/07 05:39:38;;;;;;;13.80;3.77;;;11.40;87.80;;;;;;5065478;28;20484;-66
2022/10/07 05:42:05;;;;;;;8.07;2.43;;;11.40;88.00;;;;;;5064730;28;20445;-65
2022/10/07 05:44:31;;;;;;;7.70;2.70;;;11.30;88.20;;;;;;5065163;28;20451;-65
2022/10/07 05:47:01;;;;;;;6.87;3.13;;;11.40;88.10;;;;;;5064230;28;20478;-65
2022/10/07 05:49:27;;;;;;;10.20;2.60;;;11.30;88.40;;;;;;5065127;28;20503;-65
2022/10/07 05:51:54;;;;;;;6.57;3.20;;;11.20;88.80;;;;;;5065451;28;20466;-65
2022/10/07 05:54:21;;;;;;;5.33;1.70;;;11.10;89.30;;;;;;5064888;28;20460;-65
2022/10/07 05:56:48;;;;;;;11.33;3.30;;;11.10;89.70;;;;;;5064413;28;20451;-65
2022/10/07 05:59:15;;;;;;;6.17;2.57;;;11.10;90.00;;;;;;5063788;28;20468;-65
2022/10/07 06:01:42;;;;;;;6.20;2.70;;;11.10;89.70;;;;;;5063796;28;20432;-65
2022/10/07 06:04:12;;;;;;;10.90;2.77;;;11.10;89.90;;;;;;5063241;28;20463;-64
2022/10/07 06:06:39;;;;;;;7.50;3.27;;;11.10;89.70;;;;;;5062632;28;20456;-66
2022/10/07 06:14:34;;;;;;;8.67;3.57;;;11.10;90.00;;;;;;5069407;28;20439;-64
2022/10/07 06:17:01;;;;;;;11.13;3.47;;;11.10;89.80;;;;;;5083885;28;20944;-64
2022/10/07 06:19:29;;;;;;;7.73;3.80;;;11.20;89.40;;;;;;5075711;28;20483;-64
2022/10/07 06:21:56;;;;;;;13.70;3.77;;;11.20;89.10;;;;;;5068590;28;20460;-65
2022/10/07 06:24:22;;;;;;;9.83;4.60;;;11.10;89.20;;;;;;5080622;28;20453;-65
2022/10/07 06:26:50;;;;;;;11.27;4.17;;;11.10;89.80;;;;;;5063087;28;20483;-65
2022/10/07 06:29:16;;;;;;;10.10;4.10;;;11.10;90.00;;;;;;5062511;28;20517;-64
2022/10/07 06:31:45;;;;;;;11.40;4.17;;;11.10;90.10;;;;;;5062394;28;20476;-64
2022/10/07 06:34:11;;;;;;;10.60;3.50;;;11.00;90.10;;;;;;5063273;28;20441;-65
2022/10/07 06:36:40;;;;;;;11.33;4.10;;;11.00;90.20;;;;;;5063413;28;20459;-65
2022/10/07 06:39:06;;;;;;;12.30;3.03;;;11.10;90.40;;;;;;5062053;28;20483;-64
2022/10/07 06:41:33;;;;;;;12.13;4.53;;;11.10;90.40;;;;;;5063212;28;20825;-66
2022/10/07 06:44:00;;;;;;;13.13;3.30;;;11.20;90.40;;;;;;5063516;28;20459;-65
2022/10/07 06:46:27;;;;;;;11.90;2.70;;;11.30;90.30;;;;;;5061678;28;20460;-64
2022/10/07 06:48:53;;;;;;;6.87;3.27;;;11.30;90.10;;;;;;5065806;28;20885;-65
2022/10/07 06:51:21;;;;;;;6.93;3.03;;;11.40;90.10;;;;;;5082889;28;20464;-64
2022/10/07 06:53:53;;;;;;;8.33;2.63;;;11.40;90.00;;;;;;5079576;28;20453;-65
2022/10/07 06:56:20;;;;;;;3.83;3.40;;;11.50;90.00;;;;;;5064602;28;20436;-65
2022/10/07 06:58:48;;;;;;;6.13;2.90;;;11.60;89.90;;;;;;5067857;28;20449;-65
2022/10/07 07:01:15;;;;;;;8.67;2.90;;;11.60;89.60;;;;;;5068073;28;20971;-65
2022/10/07 07:03:42;;;;;;;9.63;2.77;;;11.70;89.60;;;;;;5068339;28;20452;-65
2022/10/07 07:06:09;;;;;;;9.67;2.63;;;11.80;89.60;;;;;;5068440;28;20446;-66
2022/10/07 07:08:37;;;;;;;15.53;2.77;;;11.80;89.50;;;;;;5067146;28;20492;-65
2022/10/07 07:11:34;;;;;;;12.13;2.73;;;11.90;89.60;;;;;;5064946;28;20520;-65
2022/10/07 07:13:55;;;;;;;8.43;3.03;;;11.90;89.40;;;;;;5066149;28;20443;-66
2022/10/07 07:16:22;;;;;;;5.97;2.20;;;12.00;89.50;;;;;;5066383;28;20450;-65
2022/10/07 07:18:51;;;;;;;8.27;2.40;;;12.00;89.50;;;;;;5066981;28;20468;-66
2022/10/07 07:21:18;;;;;;;7.80;2.90;;;12.10;89.40;;;;;;5068545;28;20556;-66
2022/10/07 07:23:45;;;;;;;10.40;3.33;;;12.20;89.30;;;;;;5067935;28;20433;-66
2022/10/07 07:26:13;;;;;;;9.23;3.00;;;12.20;89.20;;;;;;5068170;28;20437;-66
2022/10/07 07:28:40;;;;;;;10.07;2.73;;;12.30;88.90;;;;;;5068024;28;20493;-66
2022/10/07 07:31:09;;;;;;;9.20;2.70;;;12.40;88.90;;;;;;5068373;28;20891;-65
2022/10/07 07:33:37;;;;;;;11.57;4.10;;;12.40;88.90;;;;;;5069374;28;20436;-65
2022/10/07 07:36:15;;;;;;;12.70;2.80;;;12.50;89.10;;;;;;5069486;28;20508;-65
2022/10/07 07:38:42;;;;;;;12.53;3.20;;;12.50;89.10;;;;;;5068724;28;20443;-66
2022/10/07 07:41:10;;;;;;;6.43;3.30;;;12.60;89.00;;;;;;5066665;28;20814;-66
2022/10/07 07:43:38;;;;;;;15.77;4.17;;;12.70;88.90;;;;;;5067277;28;20502;-66
2022/10/07 07:46:04;;;;;;;7.23;4.07;;;12.70;88.80;;;;;;5067479;28;20875;-66
2022/10/07 07:48:31;;;;;;;7.70;3.87;;;12.80;88.80;;;;;;5066806;28;20851;-67
2022/10/07 07:50:59;;;;;;;13.00;4.63;;;12.90;88.70;;;;;;5066815;28;20480;-67
2022/10/07 07:53:26;;;;;;;11.03;4.30;;;13.00;88.40;;;;;;5067878;28;20511;-66
2022/10/07 07:55:54;;;;;;;11.30;3.83;;;13.00;87.90;;;;;;5067760;28;20449;-66
2022/10/07 07:58:21;;;;;;;13.47;4.93;;;13.10;88.10;;;;;;5067166;28;20433;-66
2022/10/07 08:00:59;;;;;;;8.23;3.63;;;13.20;88.50;;;;;;5067773;28;20471;-66
2022/10/07 08:03:26;;;;;;;14.77;3.87;;;13.20;88.00;;;;;;5066022;28;20445;-66
2022/10/07 08:05:53;;;;;;;14.13;3.47;;;13.30;88.20;;;;;;5066154;28;20462;-66
2022/10/07 08:08:20;;;;;;;15.50;4.10;;;13.40;87.60;;;;;;5065733;28;20475;-66
2022/10/07 08:10:47;;;;;;;17.43;3.50;;;13.50;87.10;;;;;;5065157;28;20478;-67
2022/10/07 08:13:14;;;;;;;17.73;4.23;;;13.50;87.20;;;;;;5065903;28;20962;-66
2022/10/07 08:15:40;;;;;;;10.97;3.57;;;13.60;87.00;;;;;;5065495;28;20449;-66
2022/10/07 08:18:09;;;;;;;17.57;4.20;;;13.60;86.60;;;;;;5066274;28;20450;-67
2022/10/07 08:20:36;;;;;;;10.80;3.90;;;13.60;86.70;;;;;;5065699;28;20481;-67
2022/10/07 08:23:03;;;;;;;10.63;3.47;;;13.70;87.60;;;;;;5065902;28;20454;-67
2022/10/07 08:25:30;;;;;;;7.90;3.27;;;13.70;86.50;;;;;;5065626;28;20469;-66
2022/10/07 08:27:57;;;;;;;11.83;4.23;;;13.80;86.50;;;;;;5066375;28;20492;-66
2022/10/07 08:30:24;;;;;;;9.93;3.90;;;13.90;86.50;;;;;;5064584;28;20476;-66
2022/10/07 08:32:51;;;;;;;8.77;3.63;;;13.90;86.80;;;;;;5063444;28;20444;-67
2022/10/07 08:35:19;;;;;;;13.60;4.50;;;14.00;87.60;;;;;;5063437;28;20848;-67
2022/10/07 08:37:45;;;;;;;12.37;4.60;;;14.10;86.30;;;;;;5061196;28;20449;-67
2022/10/07 08:40:14;;;;;;;12.83;4.60;;;14.20;86.30;;;;;;5056816;28;20475;-66
2022/10/07 08:42:43;;;;;;;12.57;5.30;;;14.30;86.00;;;;;;5060253;28;20437;-66
2022/10/07 08:45:18;;;;;;;16.93;4.53;;;14.40;85.70;;;;;;5064966;28;20437;-66
2022/10/07 08:47:47;;;;;;;7.60;3.73;;;14.50;85.40;;;;;;5066268;28;20472;-66
2022/10/07 08:50:16;;;;;;;9.50;4.10;;;14.60;85.80;;;;;;5066486;28;20996;-66
2022/10/07 08:52:50;;;;;;;10.43;4.47;;;14.60;86.10;;;;;;5066723;28;20937;-66
2022/10/07 08:55:23;;;;;;;11.80;4.17;;;14.70;85.80;;;;;;5067441;28;20440;-67
2022/10/07 08:58:13;;;;;;;8.87;4.07;;;14.80;85.30;;;;;;5066639;28;20438;-67
2022/10/07 09:00:46;;;;;;;17.77;5.43;;;14.80;85.30;;;;;;5066669;28;20537;-67
2022/10/07 09:03:24;;;;;;;9.03;4.00;;;14.90;84.80;;;;;;5066454;28;20903;-67
2022/10/07 09:05:54;;;;;;;13.97;5.47;;;15.00;84.10;;;;;;5065085;28;20448;-67
2022/10/07 09:08:28;;;;;;;16.23;7.17;;;15.00;84.10;;;;;;5064728;28;20531;-67
2022/10/07 09:10:58;;;;;;;12.43;7.20;;;15.20;84.70;;;;;;5064758;28;21078;-67
2022/10/07 09:13:29;;;;;;;16.20;4.97;;;15.30;83.90;;;;;;5064614;28;20433;-67
2022/10/07 09:15:59;;;;;;;15.10;6.63;;;15.30;82.70;;;;;;5065038;28;20918;-66
2022/10/07 09:18:33;;;;;;;13.83;4.43;;;15.40;83.00;;;;;;5067414;28;20431;-67
2022/10/07 09:21:05;;;;;;;12.40;5.40;;;15.50;82.90;;;;;;5067085;28;20980;-66
2022/10/07 09:23:35;;;;;;;18.70;5.40;;;15.60;82.80;;;;;;5067567;28;20441;-67
2022/10/07 09:26:07;;;;;;;12.80;3.37;;;15.70;83.40;;;;;;5068620;28;20483;-66
2022/10/07 09:28:34;;;;;;;9.83;3.23;;;15.80;82.70;;;;;;5067153;28;20465;-66
2022/10/07 09:31:02;;;;;;;25.33;4.53;;;15.90;81.90;;;;;;5067337;28;20466;-67
2022/10/07 09:33:29;;;;;;;15.73;4.40;;;16.00;82.40;;;;;;5067171;28;20445;-67
2022/10/07 09:35:58;;;;;;;11.63;3.63;;;16.10;81.90;;;;;;5066494;28;20441;-67
2022/10/07 09:38:31;;;;;;;14.43;3.73;;;16.20;80.70;;;;;;5067229;28;20437;-67
2022/10/07 09:41:15;;;;;;;12.30;3.00;;;16.40;80.50;;;;;;5066638;28;20472;-67
2022/10/07 09:43:55;;;;;;;11.93;2.97;;;16.50;80.80;;;;;;5065859;28;20795;-67
2022/10/07 09:46:45;;;;;;;13.73;2.90;;;16.70;79.00;;;;;;5066813;28;20434;-67
2022/10/07 09:52:55;;;;;;;11.10;3.23;;;17.10;78.00;;;;;;5064282;28;20454;-67
2022/10/07 09:55:36;;;;;;;12.27;3.30;;;17.30;75.20;;;;;;5064099;28;20430;-67
2022/10/07 09:58:06;;;;;;;12.00;2.90;;;17.60;74.30;;;;;;5063852;28;20528;-67
2022/10/07 10:00:42;;;;;;;10.23;2.27;;;17.90;73.40;;;;;;5062341;28;20473;-67
2022/10/07 10:03:08;;;;;;;6.97;2.20;;;18.10;72.60;;;;;;5063278;28;20521;-67
2022/10/07 10:05:39;;;;;;;16.33;2.80;;;18.40;71.30;;;;;;5063775;28;20449;-68
2022/10/07 10:08:19;;;;;;;13.83;3.67;;;18.70;70.10;;;;;;5062423;28;20473;-68
2022/10/07 10:10:51;;;;;;;10.23;4.40;;;19.10;69.30;;;;;;5062435;28;20482;-67
2022/10/07 10:13:28;;;;;;;9.57;3.13;;;19.60;65.00;;;;;;5061259;28;20426;-68
2022/10/07 10:15:54;;;;;;;8.00;2.20;;;20.10;61.30;;;;;;5059980;28;20440;-68
2022/10/07 10:18:37;;;;;;;10.10;2.40;;;20.60;58.50;;;;;;5058405;28;20879;-68
2022/10/07 10:21:20;;;;;;;7.50;2.00;;;21.10;57.60;;;;;;5059131;28;20485;-68
2022/10/07 10:23:49;;;;;;;8.70;2.50;;;21.60;55.90;;;;;;5059947;28;20445;-68
2022/10/07 10:26:40;;;;;;;10.73;3.23;;;22.00;54.00;;;;;;5061821;28;20454;-69
2022/10/07 10:29:34;;;;;;;10.97;2.60;;;22.50;52.30;;;;;;5057171;28;20485;-68
2022/10/07 10:32:21;;;;;;;9.33;2.30;;;22.60;50.80;;;;;;5060537;28;20799;-68
2022/10/07 10:34:55;;;;;;;8.10;2.83;;;23.00;48.30;;;;;;5049357;28;20473;-69
2022/10/07 10:37:25;;;;;;;12.70;3.37;;;23.40;47.50;;;;;;5064511;28;20434;-69
2022/10/07 10:40:03;;;;;;;6.87;2.07;;;23.90;47.70;;;;;;5065037;28;20462;-69
2022/10/07 10:42:39;;;;;;;11.33;2.97;;;24.30;44.00;;;;;;5063471;28;20453;-68
2022/10/07 10:45:24;;;;;;;7.77;3.33;;;24.50;44.40;;;;;;5062560;28;20421;-68
2022/10/07 10:48:05;;;;;;;7.17;2.37;;;24.70;43.00;;;;;;5063092;28;20410;-68
2022/10/07 10:50:42;;;;;;;6.17;2.33;;;25.10;41.20;;;;;;5063309;28;20484;-68
2022/10/07 10:53:23;;;;;;;7.90;2.40;;;25.40;40.50;;;;;;5063048;28;20842;-68
2022/10/07 10:56:07;;;;;;;11.07;2.20;;;25.70;39.70;;;;;;5064893;28;20434;-68
2022/10/07 10:58:45;;;;;;;10.17;2.73;;;26.00;38.80;;;;;;5064127;28;20933;-68
2022/10/07 11:01:24;;;;;;;7.80;2.30;;;26.00;38.20;;;;;;5064784;28;20473;-69
2022/10/07 11:04:18;;;;;;;10.93;2.40;;;26.00;38.80;;;;;;5064049;28;20444;-69
2022/10/07 11:06:50;;;;;;;9.13;2.40;;;26.10;38.90;;;;;;5053505;28;20457;-69
2022/10/07 11:09:24;;;;;;;11.97;2.87;;;26.00;38.30;;;;;;5063766;28;20932;-68
2022/10/07 11:11:51;;;;;;;11.77;2.47;;;25.90;38.00;;;;;;5064588;28;20911;-68
2022/10/07 11:14:21;;;;;;;7.97;2.47;;;25.70;38.50;;;;;;5064269;28;20446;-68
2022/10/07 11:16:53;;;;;;;10.17;2.77;;;25.50;39.50;;;;;;5063371;28;20912;-68
2022/10/07 11:19:23;;;;;;;11.27;2.60;;;25.60;39.20;;;;;;5064174;28;20465;-68
2022/10/07 11:21:52;;;;;;;9.30;2.60;;;25.80;38.80;;;;;;5063695;28;20445;-68
2022/10/07 11:24:25;;;;;;;7.77;2.57;;;26.00;39.80;;;;;;5073504;28;20452;-68
2022/10/07 11:26:56;;;;;;;13.07;2.20;;;26.00;37.90;;;;;;5074035;28;20465;-68
2022/10/07 11:29:31;;;;;;;9.87;2.63;;;26.00;38.00;;;;;;5074171;28;20573;-69
2022/10/07 11:32:05;;;;;;;11.70;2.77;;;26.30;37.40;;;;;;5074124;28;20441;-69
2022/10/07 11:34:40;;;;;;;7.50;2.33;;;26.80;37.30;;;;;;5070049;28;20427;-69
2022/10/07 11:37:15;;;;;;;9.83;2.53;;;27.10;36.50;;;;;;5070301;28;20433;-69
2022/10/07 11:39:42;;;;;;;9.13;2.23;;;27.50;35.90;;;;;;5073436;28;20882;-69
2022/10/07 11:42:15;;;;;;;9.30;2.80;;;28.00;36.20;;;;;;5073706;28;20450;-69
2022/10/07 11:44:50;;;;;;;8.77;2.70;;;28.50;33.80;;;;;;5071285;28;20434;-69
2022/10/07 11:47:23;;;;;;;8.03;2.47;;;28.80;33.10;;;;;;5068906;28;20445;-69
2022/10/07 11:49:56;;;;;;;11.37;2.50;;;29.00;32.10;;;;;;5068637;28;20489;-69
2022/10/07 11:52:26;;;;;;;9.80;2.90;;;29.10;31.50;;;;;;5061665;28;20442;-69
2022/10/07 11:54:58;;;;;;;9.67;2.77;;;29.10;31.00;;;;;;5058694;28;20480;-69
2022/10/07 11:57:26;;;;;;;11.90;2.20;;;29.10;31.50;;;;;;5061322;28;20436;-69
2022/10/07 11:59:59;;;;;;;6.73;2.50;;;29.10;30.80;;;;;;5058060;28;20830;-69
2022/10/07 12:02:45;;;;;;;8.13;2.53;;;29.30;31.20;;;;;;5059111;28;20434;-69
2022/10/07 12:05:56;;;;;;;9.67;2.83;;;29.40;30.30;;;;;;5060615;28;20440;-69
2022/10/07 12:08:32;;;;;;;8.47;2.80;;;29.30;30.20;;;;;;5061853;28;20460;-69
2022/10/07 12:11:44;;;;;;;14.90;2.90;;;29.50;30.80;;;;;;5061249;28;20485;-69
2022/10/07 12:14:42;;;;;;;7.43;2.40;;;29.70;31.10;;;;;;5049433;28;20966;-68
2022/10/07 12:17:20;;;;;;;5.20;2.13;;;30.10;29.60;;;;;;5026287;28;20442;-69
2022/10/07 12:20:27;;;;;;;11.40;4.63;;;30.20;29.30;;;;;;5059931;28;20468;-69
2022/10/07 12:23:28;;;;;;;5.67;2.60;;;30.00;29.80;;;;;;5058886;28;20461;-69
2022/10/07 12:25:57;;;;;;;8.37;2.17;;;29.90;28.90;;;;;;5058090;28;20985;-68
2022/10/07 12:28:27;;;;;;;7.53;2.50;;;29.90;29.10;;;;;;5058506;28;20446;-68
2022/10/07 12:30:56;;;;;;;7.80;2.33;;;30.20;29.80;;;;;;5058305;28;20982;-69
2022/10/07 12:33:32;;;;;;;8.03;2.70;;;30.60;28.80;;;;;;5059554;28;20456;-69
2022/10/07 12:36:28;;;;;;;8.77;3.07;;;31.30;28.10;;;;;;5059787;28;20437;-69
2022/10/07 12:39:31;;;;;;;7.73;2.93;;;31.50;27.20;;;;;;5059502;28;20771;-68
2022/10/07 12:41:59;;;;;;;11.13;2.93;;;31.60;26.80;;;;;;5059635;28;20409;-68
2022/10/07 12:44:31;;;;;;;6.93;2.33;;;31.80;27.10;;;;;;5060938;28;20442;-68
2022/10/07 12:47:05;;;;;;;10.40;2.80;;;31.80;26.50;;;;;;5059063;28;20436;-69
2022/10/07 12:49:36;;;;;;;7.30;3.00;;;32.10;26.40;;;;;;5059453;28;20488;-69
2022/10/07 12:52:11;;;;;;;6.77;2.00;;;32.40;26.20;;;;;;5059869;28;20430;-69
2022/10/07 12:54:46;;;;;;;11.33;2.57;;;32.40;26.40;;;;;;5059452;28;20464;-69
2022/10/07 12:57:19;;;;;;;7.10;2.63;;;32.60;25.90;;;;;;5061176;28;20440;-69
2022/10/07 12:59:57;;;;;;;8.20;2.70;;;32.90;25.30;;;;;;5059971;28;20465;-70
2022/10/07 13:03:11;;;;;;;6.20;2.67;;;33.20;25.00;;;;;;5061001;28;20433;-68
2022/10/07 13:06:24;;;;;;;8.60;3.27;;;32.90;24.70;;;;;;5041965;28;20441;-69
2022/10/07 13:09:25;;;;;;;6.77;2.77;;;32.50;25.40;;;;;;5060414;28;20488;-70
2022/10/07 13:12:17;;;;;;;12.27;3.77;;;32.70;26.20;;;;;;5059394;28;20526;-69
2022/10/07 13:14:53;;;;;;;10.47;3.50;;;33.10;25.30;;;;;;5062567;28;20425;-69
2022/10/07 13:17:35;;;;;;;10.30;3.33;;;33.40;24.60;;;;;;5060143;28;20476;-69
2022/10/07 13:20:15;;;;;;;10.40;2.87;;;33.50;24.50;;;;;;5059416;28;20468;-69